createdAt,value
2022-11-29T00:01:06.535Z,10.43
2022-11-29T00:04:10.051Z,8.98
2022-11-29T00:07:12.615Z,8.85
2022-11-29T00:10:15.593Z,8.32
2022-11-29T00:13:18.075Z,8.60
2022-11-29T00:16:20.943Z,8.07
2022-11-29T00:19:23.892Z,8.80
2022-11-29T00:22:26.726Z,9.13
2022-11-29T00:25:29.193Z,8.40
2022-11-29T00:28:32.335Z,8.38
2022-11-29T00:31:34.838Z,9.80
2022-11-29T00:34:37.651Z,11.32
2022-11-29T00:37:40.192Z,10.68
2022-11-29T00:40:43.067Z,7.93
2022-11-29T00:43:45.715Z,7.68
2022-11-29T00:46:48.714Z,9.93
2022-11-29T00:49:51.272Z,9.77
2022-11-29T00:52:54.097Z,9.07
2022-11-29T00:55:56.798Z,8.65
2022-11-29T00:58:59.694Z,6.95
2022-11-29T01:02:02.219Z,10.00
2022-11-29T01:05:05.487Z,10.23
2022-11-29T01:08:07.981Z,8.98
2022-11-29T01:11:22.673Z,12.57
2022-11-29T01:14:25.158Z,11.45
2022-11-29T01:17:27.926Z,6.97
2022-11-29T01:20:30.424Z,9.18
2022-11-29T01:23:34.429Z,9.48
2022-11-29T01:26:36.954Z,10.32
2022-11-29T01:29:39.826Z,10.02
2022-11-29T01:32:42.287Z,12.10
2022-11-29T01:35:52.292Z,12.00
2022-11-29T01:38:55.216Z,12.07
2022-11-29T01:41:58.148Z,12.15
2022-11-29T01:45:26.774Z,11.07
2022-11-29T01:48:31.106Z,9.90
2022-11-29T01:51:34.977Z,10.43
2022-11-29T01:54:41.548Z,8.20
2022-11-29T01:57:44.416Z,11.93
2022-11-29T02:00:47.462Z,12.00
2022-11-29T02:03:50.178Z,9.53
2022-11-29T02:06:53.051Z,12.30
2022-11-29T02:09:55.594Z,11.70
2022-11-29T02:13:26.713Z,15.77
2022-11-29T02:16:36.201Z,13.80
2022-11-29T02:20:36.371Z,14.37
2022-11-29T02:23:47.570Z,13.50
2022-11-29T02:27:12.642Z,11.73
2022-11-29T02:30:33.742Z,10.30
2022-11-29T02:33:57.887Z,14.32
2022-11-29T02:37:16.991Z,11.27
2022-11-29T02:40:42.828Z,12.37
2022-11-29T02:44:07.159Z,13.27
2022-11-29T02:47:26.262Z,14.98
2022-11-29T02:50:39.104Z,13.10
2022-11-29T02:53:57.407Z,12.43
2022-11-29T02:57:02.855Z,11.45
2022-11-29T03:00:05.571Z,15.88
2022-11-29T03:03:36.934Z,10.13
2022-11-29T03:06:46.995Z,16.35
2022-11-29T03:09:58.878Z,11.33
2022-11-29T03:13:04.293Z,13.38
2022-11-29T03:16:14.413Z,11.98
2022-11-29T03:19:43.358Z,9.68
2022-11-29T03:23:10.073Z,15.02
2022-11-29T03:26:36.193Z,12.13
2022-11-29T03:29:38.800Z,10.25
2022-11-29T03:32:44.298Z,11.98
2022-11-29T03:36:07.643Z,11.65
2022-11-29T03:39:28.066Z,15.55
2022-11-29T03:42:34.790Z,12.77
2022-11-29T03:45:59.162Z,9.38
2022-11-29T03:49:13.883Z,13.38
2022-11-29T03:52:21.791Z,10.48
2022-11-29T03:55:27.488Z,10.32
2022-11-29T03:58:32.762Z,12.00
2022-11-29T04:01:47.474Z,11.48
2022-11-29T04:05:05.185Z,9.35
2022-11-29T04:08:10.664Z,11.80
2022-11-29T04:11:55.164Z,11.88
2022-11-29T04:15:15.762Z,17.40
2022-11-29T04:18:57.022Z,13.05
2022-11-29T04:22:51.136Z,11.12
2022-11-29T04:26:35.389Z,10.88
2022-11-29T04:29:50.170Z,10.70
2022-11-29T04:33:08.140Z,11.23
2022-11-29T04:36:44.948Z,9.75
2022-11-29T04:40:04.908Z,10.38
2022-11-29T04:43:37.718Z,12.02
2022-11-29T04:47:01.932Z,8.35
2022-11-29T04:50:23.331Z,9.23
2022-11-29T04:53:44.597Z,11.95
2022-11-29T04:56:50.358Z,11.05
2022-11-29T05:00:09.930Z,11.32
2022-11-29T05:03:24.667Z,8.45
2022-11-29T05:06:42.649Z,7.20
2022-11-29T05:10:26.776Z,9.20
2022-11-29T05:13:48.048Z,9.00
2022-11-29T05:17:09.556Z,12.45
2022-11-29T05:20:21.866Z,11.90
2022-11-29T05:23:34.079Z,16.50
2022-11-29T05:26:45.968Z,12.55
2022-11-29T05:30:02.237Z,12.00
2022-11-29T05:33:38.156Z,9.43
2022-11-29T05:36:49.103Z,12.45
2022-11-29T05:40:29.794Z,13.77
2022-11-29T05:44:09.213Z,10.25
2022-11-29T05:47:16.174Z,8.18
2022-11-29T05:50:47.628Z,7.10
2022-11-29T05:54:02.230Z,9.00
2022-11-29T05:57:43.798Z,10.83
2022-11-29T06:00:54.194Z,10.43
2022-11-29T06:03:59.961Z,8.38
2022-11-29T06:07:16.499Z,10.52
2022-11-29T06:10:21.345Z,7.87
2022-11-29T06:13:54.704Z,8.37
2022-11-29T06:17:26.011Z,8.80
2022-11-29T06:20:31.515Z,9.82
2022-11-29T06:24:05.897Z,10.02
2022-11-29T06:27:29.159Z,7.15
2022-11-29T06:31:10.623Z,10.67
2022-11-29T06:34:18.594Z,8.43
2022-11-29T06:37:28.573Z,9.73
2022-11-29T06:40:31.365Z,9.75
2022-11-29T06:43:34.437Z,10.75
2022-11-29T06:47:17.643Z,8.90
2022-11-29T06:50:26.651Z,7.97
2022-11-29T06:53:41.348Z,12.18
2022-11-29T06:56:47.008Z,12.55
2022-11-29T06:59:58.416Z,11.73
2022-11-29T07:03:25.041Z,7.13
2022-11-29T07:06:29.372Z,11.15
2022-11-29T07:09:34.694Z,9.02
2022-11-29T07:12:37.575Z,10.68
2022-11-29T07:16:04.713Z,8.70
2022-11-29T07:19:21.753Z,7.83
2022-11-29T07:22:30.540Z,8.95
2022-11-29T07:25:57.971Z,13.05
2022-11-29T07:29:16.387Z,7.07
2022-11-29T07:32:38.599Z,8.70
2022-11-29T07:35:55.473Z,9.33
2022-11-29T07:39:16.729Z,9.25
2022-11-29T07:42:37.786Z,10.48
2022-11-29T07:45:40.511Z,6.28
2022-11-29T07:48:43.920Z,6.62
2022-11-29T07:51:46.597Z,10.73
2022-11-29T07:54:49.677Z,9.13
2022-11-29T07:57:52.817Z,8.55
2022-11-29T08:00:55.996Z,9.07
2022-11-29T08:04:01.949Z,7.30
2022-11-29T08:07:04.583Z,8.93
2022-11-29T08:10:10.509Z,8.80
2022-11-29T08:13:13.662Z,9.25
2022-11-29T08:16:18.105Z,3.25
2022-11-29T08:19:20.784Z,10.93
2022-11-29T08:22:23.637Z,10.20
2022-11-29T08:25:27.373Z,6.45
2022-11-29T08:28:30.341Z,9.95
2022-11-29T08:31:32.955Z,10.20
2022-11-29T08:34:35.927Z,9.57
2022-11-29T08:37:38.470Z,8.97
2022-11-29T08:40:41.317Z,10.15
2022-11-29T08:43:44.419Z,10.10
2022-11-29T08:47:05.922Z,9.20
2022-11-29T08:50:14.389Z,10.93
2022-11-29T08:53:36.522Z,8.07
2022-11-29T09:00:02.299Z,8.23
2022-11-29T09:03:25.772Z,7.12
2022-11-29T09:06:36.264Z,8.45
2022-11-29T09:09:39.219Z,9.80
2022-11-29T09:12:44.307Z,10.32
2022-11-29T09:15:46.859Z,8.15
2022-11-29T09:18:51.855Z,8.82
2022-11-29T09:21:55.742Z,10.93
2022-11-29T09:24:59.447Z,6.83
2022-11-29T09:28:03.118Z,7.78
2022-11-29T09:31:07.531Z,11.02
2022-11-29T09:34:12.876Z,9.55
2022-11-29T09:37:16.545Z,10.43
2022-11-29T09:40:21.625Z,10.37
2022-11-29T09:44:13.294Z,11.25
2022-11-29T09:47:21.505Z,8.40
2022-11-29T09:50:34.250Z,7.97
2022-11-29T09:53:50.739Z,7.18
2022-11-29T09:56:55.571Z,9.30
2022-11-29T10:00:04.516Z,11.32
2022-11-29T10:03:25.544Z,9.82
2022-11-29T10:06:34.237Z,8.35
2022-11-29T10:09:53.885Z,10.82
2022-11-29T10:13:01.223Z,8.73
2022-11-29T10:16:14.075Z,9.40
2022-11-29T10:19:21.600Z,8.75
2022-11-29T10:22:55.535Z,9.77
2022-11-29T10:25:58.904Z,8.15
2022-11-29T10:29:01.852Z,7.90
2022-11-29T10:32:11.820Z,10.15
2022-11-29T10:35:16.673Z,9.15
2022-11-29T10:38:30.873Z,8.80
2022-11-29T10:41:35.819Z,6.97
2022-11-29T10:44:38.584Z,8.97
2022-11-29T10:47:41.114Z,8.20
2022-11-29T10:50:45.638Z,8.80
2022-11-29T10:53:48.728Z,6.97
2022-11-29T10:56:51.941Z,9.63
2022-11-29T11:00:04.574Z,8.37
2022-11-29T11:03:36.266Z,6.87
2022-11-29T11:06:52.369Z,8.90
2022-11-29T11:09:56.990Z,8.38
2022-11-29T11:13:24.671Z,10.10
2022-11-29T11:16:30.537Z,9.27
2022-11-29T11:19:35.361Z,7.72
2022-11-29T11:22:40.019Z,6.40
2022-11-29T11:25:42.739Z,7.55
2022-11-29T11:29:01.285Z,7.40
2022-11-29T11:32:05.199Z,6.57
2022-11-29T11:35:22.785Z,8.63
2022-11-29T11:38:25.367Z,6.20
2022-11-29T11:41:48.210Z,3.40
2022-11-29T11:44:52.691Z,7.15
2022-11-29T11:47:59.135Z,8.53
2022-11-29T11:51:02.012Z,7.62
2022-11-29T11:54:05.428Z,8.85
2022-11-29T11:57:17.582Z,8.57
2022-11-29T12:04:24.594Z,10.63
2022-11-29T12:08:07.317Z,10.65
2022-11-29T12:11:10.652Z,9.73
2022-11-29T12:14:44.989Z,7.82
2022-11-29T12:18:37.979Z,6.60
2022-11-29T12:21:44.307Z,10.00
2022-11-29T12:25:00.655Z,10.27
2022-11-29T12:28:03.896Z,9.68
2022-11-29T12:31:12.630Z,11.63
2022-11-29T12:34:33.270Z,9.55
2022-11-29T12:37:43.852Z,5.50
2022-11-29T12:41:23.975Z,9.05
2022-11-29T12:44:58.967Z,10.93
2022-11-29T12:48:10.335Z,12.10
2022-11-29T12:51:48.410Z,11.43
2022-11-29T12:55:20.902Z,10.80
2022-11-29T12:59:02.645Z,13.20
2022-11-29T13:02:20.230Z,12.45
2022-11-29T13:05:33.764Z,9.73
2022-11-29T13:09:15.575Z,7.15
2022-11-29T13:12:24.651Z,9.63
2022-11-29T13:15:53.145Z,10.02
2022-11-29T13:18:59.206Z,7.80
2022-11-29T13:22:11.195Z,11.77
2022-11-29T13:25:17.863Z,12.63
2022-11-29T13:28:28.137Z,13.30
2022-11-29T13:31:31.357Z,12.50
2022-11-29T13:34:43.036Z,11.73
2022-11-29T13:37:54.992Z,10.80
2022-11-29T13:41:02.764Z,10.32
2022-11-29T13:44:44.125Z,12.57
2022-11-29T13:47:50.654Z,13.73
2022-11-29T13:50:53.584Z,12.82
2022-11-29T13:53:57.763Z,9.45
2022-11-29T13:57:08.619Z,10.45
2022-11-29T14:00:33.787Z,12.73
2022-11-29T14:03:41.433Z,13.18
2022-11-29T14:06:46.903Z,11.80
2022-11-29T14:09:59.691Z,10.90
2022-11-29T14:13:02.198Z,12.73
2022-11-29T14:16:06.445Z,15.30
2022-11-29T14:19:08.845Z,10.05
2022-11-29T14:22:20.059Z,10.63
2022-11-29T14:28:57.127Z,12.85
2022-11-29T14:31:59.873Z,12.93
2022-11-29T14:35:11.954Z,11.48
2022-11-29T14:38:24.011Z,11.27
2022-11-29T14:41:51.706Z,11.25
2022-11-29T14:45:00.784Z,12.32
2022-11-29T14:48:04.121Z,12.10
2022-11-29T14:51:18.380Z,11.07
2022-11-29T14:54:21.396Z,14.15
2022-11-29T14:58:01.203Z,11.65
2022-11-29T15:01:10.314Z,12.73
2022-11-29T15:04:13.788Z,12.37
2022-11-29T15:07:25.427Z,11.80
2022-11-29T15:10:31.532Z,10.77
2022-11-29T15:13:36.477Z,12.82
2022-11-29T15:17:13.210Z,13.50
2022-11-29T15:20:38.397Z,16.23
2022-11-29T15:23:42.728Z,14.20
2022-11-29T15:40:36.484Z,17.70
2022-11-29T15:43:40.948Z,17.65
2022-11-29T15:46:43.417Z,16.87
2022-11-29T15:49:46.135Z,17.30
2022-11-29T15:52:48.680Z,18.17
2022-11-29T15:55:52.756Z,16.15
2022-11-29T15:58:59.883Z,16.87
2022-11-29T16:02:17.405Z,14.85
2022-11-29T16:05:27.364Z,17.98
2022-11-29T16:08:33.190Z,19.70
2022-11-29T16:11:37.050Z,19.37
2022-11-29T16:14:57.721Z,26.08
2022-11-29T16:18:22.246Z,25.80
2022-11-29T16:21:30.435Z,25.33
2022-11-29T16:24:34.513Z,25.30
2022-11-29T16:27:37.336Z,25.85
2022-11-29T16:30:42.217Z,22.37
2022-11-29T16:33:45.356Z,30.15
2022-11-29T16:37:07.696Z,33.03
2022-11-29T16:40:26.058Z,29.50
2022-11-29T16:43:44.311Z,41.35
2022-11-29T16:46:46.995Z,39.45
2022-11-29T16:50:17.140Z,36.22
2022-11-29T16:53:35.142Z,40.85
2022-11-29T16:56:39.083Z,25.93
2022-11-29T16:59:42.734Z,41.28
2022-11-29T17:02:45.817Z,29.48
2022-11-29T17:05:49.523Z,39.15
2022-11-29T17:08:54.330Z,36.50
2022-11-29T17:11:59.997Z,37.37
2022-11-29T17:15:02.950Z,40.42
2022-11-29T17:18:05.581Z,36.83
2022-11-29T17:21:17.650Z,35.45
2022-11-29T17:24:22.063Z,24.00
2022-11-29T17:27:24.885Z,17.00
2022-11-29T17:30:30.071Z,29.02
2022-11-29T17:33:32.945Z,19.55
2022-11-29T17:36:35.714Z,19.12
2022-11-29T17:39:38.777Z,20.98
2022-11-29T17:42:41.511Z,14.53
2022-11-29T17:45:44.736Z,44.35
2022-11-29T17:48:47.963Z,40.35
2022-11-29T17:51:52.588Z,43.72
2022-11-29T17:54:55.671Z,65.62
2022-11-29T17:57:58.457Z,30.13
2022-11-29T18:01:28.561Z,30.08
2022-11-29T18:04:31.460Z,35.05
2022-11-29T18:07:34.118Z,22.08
2022-11-29T18:10:37.388Z,15.77
2022-11-29T18:13:40.369Z,14.87
2022-11-29T18:16:45.245Z,17.10
2022-11-29T18:19:48.796Z,17.17
2022-11-29T18:22:53.436Z,14.60
2022-11-29T18:26:03.788Z,13.90
2022-11-29T18:29:07.496Z,14.47
2022-11-29T18:32:10.339Z,16.08
2022-11-29T18:35:13.296Z,15.60
2022-11-29T18:38:16.638Z,14.80
2022-11-29T18:41:21.607Z,13.80
2022-11-29T18:44:29.303Z,15.60
2022-11-29T18:47:33.140Z,14.20
2022-11-29T18:50:36.268Z,14.80
2022-11-29T18:53:39.788Z,13.85
2022-11-29T18:56:43.004Z,15.45
2022-11-29T18:59:45.813Z,16.43
2022-11-29T19:02:48.985Z,14.95
2022-11-29T19:05:52.748Z,17.08
2022-11-29T19:08:57.079Z,29.20
2022-11-29T19:12:01.212Z,51.97
2022-11-29T19:15:04.241Z,44.73
2022-11-29T19:18:07.014Z,34.55
2022-11-29T19:21:12.425Z,19.27
2022-11-29T19:24:17.843Z,35.53
2022-11-29T19:27:22.421Z,38.35
2022-11-29T19:30:25.462Z,31.87
2022-11-29T19:33:28.324Z,28.60
2022-11-29T19:36:32.137Z,25.15
2022-11-29T19:39:35.048Z,23.65
2022-11-29T19:42:37.815Z,25.98
2022-11-29T19:45:40.734Z,22.47
2022-11-29T19:48:44.307Z,25.40
2022-11-29T19:51:47.151Z,21.90
2022-11-29T19:54:50.146Z,19.87
2022-11-29T19:57:53.422Z,20.55
2022-11-29T20:00:56.494Z,19.33
2022-11-29T20:03:59.544Z,20.02
2022-11-29T20:07:03.504Z,21.65
2022-11-29T20:10:08.188Z,21.35
2022-11-29T20:13:10.996Z,22.75
2022-11-29T20:16:17.155Z,21.57
2022-11-29T20:19:20.103Z,21.02
2022-11-29T20:22:23.152Z,23.33
2022-11-29T20:25:26.226Z,24.40
2022-11-29T20:28:29.240Z,24.08
2022-11-29T20:31:33.900Z,26.20
2022-11-29T20:34:38.522Z,23.62
2022-11-29T20:38:03.709Z,22.65
2022-11-29T20:41:14.197Z,22.15
2022-11-29T20:44:20.609Z,24.12
2022-11-29T20:47:25.848Z,22.23
2022-11-29T20:50:32.184Z,21.92
2022-11-29T20:53:41.005Z,24.25
2022-11-29T20:56:43.497Z,21.35
2022-11-29T20:59:46.996Z,20.40
2022-11-29T21:02:49.801Z,19.53
2022-11-29T21:05:53.343Z,21.40
2022-11-29T21:08:56.003Z,20.95
2022-11-29T21:11:58.881Z,22.25
2022-11-29T21:15:02.189Z,22.75
2022-11-29T21:18:05.327Z,23.47
2022-11-29T21:21:13.781Z,20.75
2022-11-29T21:24:46.986Z,22.27
2022-11-29T21:27:50.501Z,20.88
2022-11-29T21:30:53.775Z,20.23
2022-11-29T21:33:56.554Z,29.23
2022-11-29T21:36:59.966Z,27.92
2022-11-29T21:40:02.456Z,23.42
2022-11-29T21:43:05.264Z,22.27
2022-11-29T21:46:07.923Z,24.40
2022-11-29T21:49:11.129Z,20.70
2022-11-29T21:52:19.092Z,24.35
2022-11-29T21:55:31.522Z,21.92
2022-11-29T21:58:36.095Z,20.08
2022-11-29T22:01:39.820Z,19.75
2022-11-29T22:04:42.706Z,18.40
2022-11-29T22:07:45.268Z,18.10
2022-11-29T22:10:48.117Z,19.25
2022-11-29T22:14:11.896Z,16.58
2022-11-29T22:17:14.664Z,17.50
2022-11-29T22:20:17.372Z,15.70
2022-11-29T22:23:20.136Z,17.52
2022-11-29T22:26:22.555Z,17.52
2022-11-29T22:29:25.533Z,20.65
2022-11-29T22:32:28.007Z,20.30
2022-11-29T22:35:30.998Z,19.47
2022-11-29T22:38:34.928Z,18.77
2022-11-29T22:41:39.090Z,21.65
2022-11-29T22:44:41.520Z,19.98
2022-11-29T22:47:44.295Z,18.87
2022-11-29T22:50:46.909Z,18.97
2022-11-29T22:53:51.687Z,20.17
2022-11-29T22:56:55.039Z,20.83
2022-11-29T22:59:57.832Z,21.02
2022-11-29T23:03:00.278Z,20.37
2022-11-29T23:06:17.675Z,21.87
2022-11-29T23:09:22.282Z,22.13
2022-11-29T23:12:26.527Z,19.85
2022-11-29T23:15:29.141Z,22.17
2022-11-29T23:18:32.338Z,24.42
2022-11-29T23:21:37.330Z,20.33
2022-11-29T23:24:42.401Z,20.05
2022-11-29T23:27:44.813Z,19.37
2022-11-29T23:30:47.568Z,22.52
2022-11-29T23:33:50.413Z,18.30
2022-11-29T23:36:53.523Z,21.20
2022-11-29T23:39:56.051Z,20.10
2022-11-29T23:42:58.873Z,18.73
2022-11-29T23:46:16.212Z,18.23
2022-11-29T23:49:19.062Z,19.45
2022-11-29T23:52:21.729Z,21.03
2022-11-29T23:55:24.996Z,18.95
2022-11-29T23:58:28.397Z,11.85
